createdAt,value
2023-01-18T00:01:02.445Z,8.30
2023-01-18T00:03:33.167Z,9.23
2023-01-18T00:06:01.712Z,8.68
2023-01-18T00:08:29.404Z,9.27
2023-01-18T00:11:02.277Z,8.52
2023-01-18T00:13:30.987Z,8.38
2023-01-18T00:16:02.881Z,8.63
2023-01-18T00:18:30.314Z,8.07
2023-01-18T00:21:01.061Z,7.15
2023-01-18T00:23:28.559Z,10.10
2023-01-18T00:26:00.396Z,8.23
2023-01-18T00:28:27.784Z,6.65
2023-01-18T00:30:56.526Z,9.32
2023-01-18T00:33:23.931Z,6.88
2023-01-18T00:36:02.188Z,7.53
2023-01-18T00:38:29.753Z,8.50
2023-01-18T00:40:57.188Z,7.82
2023-01-18T00:43:39.335Z,9.52
2023-01-18T00:46:08.764Z,9.30
2023-01-18T00:48:36.282Z,7.93
2023-01-18T00:51:03.811Z,7.82
2023-01-18T00:53:31.338Z,8.82
2023-01-18T00:55:58.723Z,9.35
2023-01-18T00:58:26.109Z,8.88
2023-01-18T01:00:53.674Z,8.68
2023-01-18T01:03:22.441Z,9.35
2023-01-18T01:06:07.342Z,9.40
2023-01-18T01:08:34.761Z,8.30
2023-01-18T01:11:06.995Z,8.75
2023-01-18T01:13:52.394Z,8.85
2023-01-18T01:16:37.351Z,9.93
2023-01-18T01:19:23.794Z,9.23
2023-01-18T01:22:08.587Z,9.57
2023-01-18T01:24:53.887Z,10.48
2023-01-18T01:27:21.305Z,9.15
2023-01-18T01:29:48.667Z,9.38
2023-01-18T01:32:16.046Z,9.07
2023-01-18T01:34:44.830Z,10.40
2023-01-18T01:37:12.214Z,8.75
2023-01-18T01:39:39.587Z,8.88
2023-01-18T01:42:06.978Z,7.80
2023-01-18T01:44:49.980Z,9.23
2023-01-18T01:47:26.627Z,8.75
2023-01-18T01:49:57.202Z,8.52
2023-01-18T01:52:25.622Z,8.55
2023-01-18T01:54:54.699Z,8.90
2023-01-18T01:57:23.214Z,8.00
2023-01-18T01:59:52.851Z,7.75
2023-01-18T02:02:20.290Z,8.02
2023-01-18T02:04:53.362Z,8.40
2023-01-18T02:07:22.204Z,7.90
2023-01-18T02:09:49.610Z,8.38
2023-01-18T02:12:17.027Z,9.25
2023-01-18T02:14:44.404Z,7.45
2023-01-18T02:17:21.783Z,7.57
2023-01-18T02:20:24.113Z,7.65
2023-01-18T02:23:13.986Z,7.65
2023-01-18T02:25:50.933Z,6.97
2023-01-18T02:28:21.905Z,6.13
2023-01-18T02:30:51.481Z,7.15
2023-01-18T02:33:20.225Z,7.50
2023-01-18T02:35:49.802Z,7.90
2023-01-18T02:38:17.963Z,7.47
2023-01-18T02:41:07.400Z,7.38
2023-01-18T02:43:53.747Z,7.13
2023-01-18T02:46:34.442Z,7.70
2023-01-18T02:49:03.093Z,7.13
2023-01-18T02:51:30.479Z,7.97
2023-01-18T02:53:57.881Z,6.63
2023-01-18T02:56:26.783Z,7.15
2023-01-18T02:58:57.400Z,8.55
2023-01-18T03:01:27.221Z,7.47
2023-01-18T03:03:55.923Z,6.82
2023-01-18T03:06:24.769Z,6.18
2023-01-18T03:08:53.124Z,6.30
2023-01-18T03:11:22.694Z,8.63
2023-01-18T03:13:59.084Z,8.00
2023-01-18T03:16:27.703Z,7.95
2023-01-18T03:19:03.029Z,6.80
2023-01-18T03:21:38.857Z,6.45
2023-01-18T03:24:06.839Z,6.25
2023-01-18T03:26:35.723Z,5.95
2023-01-18T03:29:22.241Z,6.03
2023-01-18T03:32:08.576Z,6.88
2023-01-18T03:34:38.573Z,5.45
2023-01-18T03:37:08.080Z,8.52
2023-01-18T03:39:37.400Z,6.13
2023-01-18T03:42:06.288Z,5.20
2023-01-18T03:44:36.529Z,5.90
2023-01-18T03:47:04.562Z,5.95
2023-01-18T03:49:32.133Z,7.53
2023-01-18T03:52:02.800Z,7.97
2023-01-18T03:54:34.767Z,5.90
2023-01-18T03:57:03.617Z,5.95
2023-01-18T03:59:35.362Z,5.97
2023-01-18T04:02:04.509Z,5.63
2023-01-18T04:04:31.909Z,5.35
2023-01-18T04:06:59.304Z,6.57
2023-01-18T04:09:26.778Z,7.07
2023-01-18T04:11:54.148Z,6.85
2023-01-18T04:14:21.555Z,5.95
2023-01-18T04:16:48.919Z,5.75
2023-01-18T04:19:17.640Z,5.65
2023-01-18T04:21:45.016Z,5.22
2023-01-18T04:24:12.620Z,5.03
2023-01-18T04:26:40.019Z,5.63
2023-01-18T04:29:08.982Z,5.63
2023-01-18T04:31:36.388Z,5.50
2023-01-18T04:34:03.811Z,7.07
2023-01-18T04:36:32.503Z,6.63
2023-01-18T04:38:59.888Z,6.70
2023-01-18T04:41:27.268Z,5.00
2023-01-18T04:43:54.658Z,6.43
2023-01-18T04:46:22.179Z,5.35
2023-01-18T04:48:52.810Z,7.20
2023-01-18T04:51:20.346Z,6.05
2023-01-18T04:53:49.062Z,6.53
2023-01-18T04:56:16.569Z,5.43
2023-01-18T04:58:44.131Z,5.13
2023-01-18T05:01:14.043Z,5.97
2023-01-18T05:03:41.528Z,7.78
2023-01-18T05:06:09.883Z,7.15
2023-01-18T05:08:40.794Z,5.90
2023-01-18T05:11:10.172Z,6.00
2023-01-18T05:13:37.669Z,5.85
2023-01-18T05:16:06.342Z,7.20
2023-01-18T05:18:33.946Z,6.95
2023-01-18T05:21:01.319Z,5.68
2023-01-18T05:23:28.727Z,5.57
2023-01-18T05:25:56.521Z,5.32
2023-01-18T05:28:25.678Z,7.00
2023-01-18T05:30:53.058Z,7.28
2023-01-18T05:33:20.605Z,6.60
2023-01-18T05:35:49.391Z,6.35
2023-01-18T05:38:16.914Z,8.18
2023-01-18T05:40:45.274Z,6.75
2023-01-18T05:43:12.895Z,6.53
2023-01-18T05:45:42.730Z,7.25
2023-01-18T05:48:10.254Z,8.27
2023-01-18T05:50:39.259Z,6.00
2023-01-18T05:53:06.651Z,7.50
2023-01-18T05:55:34.088Z,5.82
2023-01-18T05:58:01.575Z,6.07
2023-01-18T06:00:29.104Z,7.40
2023-01-18T06:02:58.245Z,7.57
2023-01-18T06:05:25.859Z,8.20
2023-01-18T06:07:53.335Z,7.22
2023-01-18T06:10:20.847Z,7.15
2023-01-18T06:12:48.242Z,6.32
2023-01-18T06:15:17.097Z,6.03
2023-01-18T06:17:45.484Z,6.47
2023-01-18T06:20:14.534Z,6.85
2023-01-18T06:22:42.299Z,6.28
2023-01-18T06:25:10.243Z,7.10
2023-01-18T06:27:39.290Z,7.88
2023-01-18T06:30:07.864Z,9.10
2023-01-18T06:32:35.293Z,7.63
2023-01-18T06:35:02.731Z,7.75
2023-01-18T06:37:31.487Z,7.03
2023-01-18T06:40:00.678Z,7.93
2023-01-18T06:42:29.332Z,7.35
2023-01-18T06:44:56.798Z,8.60
2023-01-18T06:47:24.185Z,7.25
2023-01-18T06:49:51.621Z,8.13
2023-01-18T06:52:19.010Z,8.45
2023-01-18T06:54:47.742Z,7.85
2023-01-18T06:57:15.471Z,8.18
2023-01-18T06:59:42.899Z,7.55
2023-01-18T07:02:10.649Z,8.55
2023-01-18T07:04:43.960Z,7.95
2023-01-18T07:07:11.361Z,8.25
2023-01-18T07:09:38.788Z,10.05
2023-01-18T07:12:07.568Z,8.20
2023-01-18T07:14:34.999Z,9.20
2023-01-18T07:17:02.402Z,9.65
2023-01-18T07:19:29.781Z,8.52
2023-01-18T07:21:57.657Z,8.68
2023-01-18T07:24:25.061Z,10.68
2023-01-18T07:29:16.308Z,9.75
2023-01-18T07:31:43.759Z,8.52
2023-01-18T07:34:11.623Z,8.77
2023-01-18T07:36:39.222Z,9.13
2023-01-18T07:39:06.740Z,9.43
2023-01-18T07:41:34.118Z,12.40
2023-01-18T07:44:03.905Z,9.63
2023-01-18T07:46:32.689Z,11.75
2023-01-18T07:49:02.198Z,9.88
2023-01-18T07:51:30.377Z,10.35
2023-01-18T07:53:57.884Z,11.10
2023-01-18T07:56:25.852Z,9.75
2023-01-18T07:58:53.330Z,11.70
2023-01-18T08:01:22.074Z,9.38
2023-01-18T08:03:50.946Z,9.55
2023-01-18T08:06:21.023Z,11.65
2023-01-18T08:08:48.411Z,11.18
2023-01-18T08:11:15.788Z,9.10
2023-01-18T08:13:43.158Z,8.57
2023-01-18T08:16:12.110Z,8.52
2023-01-18T08:18:39.549Z,10.88
2023-01-18T08:21:10.368Z,9.70
2023-01-18T08:23:39.045Z,12.30
2023-01-18T08:26:07.693Z,15.55
2023-01-18T08:28:35.204Z,12.63
2023-01-18T08:31:07.229Z,9.38
2023-01-18T08:33:37.916Z,14.18
2023-01-18T08:36:05.942Z,13.25
2023-01-18T08:38:34.646Z,11.98
2023-01-18T08:41:02.800Z,14.10
2023-01-18T08:43:30.189Z,8.02
2023-01-18T08:45:57.589Z,11.82
2023-01-18T08:48:25.008Z,8.68
2023-01-18T08:50:52.401Z,10.85
2023-01-18T08:53:19.777Z,8.35
2023-01-18T08:55:48.477Z,9.40
2023-01-18T08:58:15.864Z,10.82
2023-01-18T09:00:43.252Z,10.88
2023-01-18T09:03:10.648Z,8.98
2023-01-18T09:05:38.805Z,7.88
2023-01-18T09:08:06.502Z,8.35
2023-01-18T09:10:37.311Z,8.35
2023-01-18T09:13:06.470Z,7.78
2023-01-18T09:15:34.233Z,11.88
2023-01-18T09:18:05.938Z,13.00
2023-01-18T09:20:33.512Z,12.20
2023-01-18T09:23:04.753Z,11.93
2023-01-18T09:25:32.187Z,18.63
2023-01-18T09:27:59.822Z,15.68
2023-01-18T09:30:28.535Z,15.10
2023-01-18T09:32:57.325Z,18.75
2023-01-18T09:35:25.151Z,25.08
2023-01-18T09:37:52.787Z,29.13
2023-01-18T09:40:21.340Z,23.55
2023-01-18T09:42:49.087Z,23.48
2023-01-18T09:45:23.698Z,31.67
2023-01-18T09:47:53.925Z,33.50
2023-01-18T09:50:21.502Z,46.33
2023-01-18T09:52:52.110Z,36.63
2023-01-18T09:55:23.031Z,36.53
2023-01-18T09:58:02.972Z,38.42
2023-01-18T10:00:31.712Z,32.05
2023-01-18T10:03:02.044Z,33.30
2023-01-18T10:05:31.840Z,46.15
2023-01-18T10:08:04.716Z,45.42
2023-01-18T10:10:34.927Z,44.95
2023-01-18T10:15:36.415Z,117.13
2023-01-18T10:18:05.131Z,127.75
2023-01-18T10:20:35.618Z,114.53
2023-01-18T10:23:04.345Z,108.55
2023-01-18T10:25:32.726Z,112.80
2023-01-18T10:28:09.187Z,99.32
2023-01-18T10:30:43.338Z,99.68
2023-01-18T10:33:16.858Z,89.88
2023-01-18T10:35:47.864Z,83.88
2023-01-18T10:38:17.660Z,83.93
2023-01-18T10:40:45.516Z,77.72
2023-01-18T10:43:15.621Z,77.40
2023-01-18T10:48:24.264Z,64.22
2023-01-18T10:50:53.522Z,57.38
2023-01-18T10:53:22.273Z,61.15
2023-01-18T10:55:54.967Z,60.58
2023-01-18T10:58:25.622Z,53.17
2023-01-18T11:00:54.288Z,55.58
2023-01-18T11:03:23.518Z,46.83
2023-01-18T11:05:50.899Z,50.42
2023-01-18T11:08:22.840Z,45.60
2023-01-18T11:10:58.638Z,43.53
2023-01-18T11:13:27.249Z,44.75
2023-01-18T11:16:04.933Z,41.00
2023-01-18T11:18:33.723Z,38.88
2023-01-18T11:21:01.135Z,37.92
2023-01-18T11:23:32.039Z,37.25
2023-01-18T11:26:00.632Z,30.67
2023-01-18T11:28:30.362Z,32.75
2023-01-18T11:30:59.647Z,35.03
2023-01-18T11:33:27.471Z,28.03
2023-01-18T11:35:57.529Z,23.92
2023-01-18T11:38:28.343Z,25.52
2023-01-18T11:41:06.671Z,25.80
2023-01-18T11:43:35.109Z,21.60
2023-01-18T11:46:05.812Z,22.40
2023-01-18T11:48:36.793Z,20.55
2023-01-18T11:51:08.291Z,19.60
2023-01-18T11:53:43.543Z,23.63
2023-01-18T11:56:12.183Z,20.25
2023-01-18T11:58:39.824Z,19.92
2023-01-18T12:01:15.083Z,18.00
2023-01-18T12:03:52.969Z,17.27
2023-01-18T12:06:29.145Z,18.38
2023-01-18T12:09:15.274Z,17.27
2023-01-18T12:11:47.394Z,16.13
2023-01-18T12:14:24.671Z,23.85
2023-01-18T12:17:02.714Z,19.23
2023-01-18T12:19:36.886Z,20.10
2023-01-18T12:22:17.805Z,18.90
2023-01-18T12:24:51.018Z,15.95
2023-01-18T12:27:22.977Z,19.88
2023-01-18T12:29:57.837Z,21.10
2023-01-18T12:32:35.737Z,20.45
2023-01-18T12:35:23.704Z,21.90
2023-01-18T12:37:57.379Z,18.73
2023-01-18T12:40:45.726Z,16.15
2023-01-18T12:43:21.664Z,20.23
2023-01-18T12:45:49.814Z,17.48
2023-01-18T12:48:18.828Z,13.32
2023-01-18T12:50:47.805Z,14.85
2023-01-18T12:53:18.892Z,16.77
2023-01-18T12:55:48.045Z,15.50
2023-01-18T12:58:17.857Z,16.40
2023-01-18T13:00:47.891Z,17.15
2023-01-18T13:03:18.304Z,16.02
2023-01-18T13:05:52.110Z,21.65
2023-01-18T13:08:39.106Z,24.17
2023-01-18T13:11:08.968Z,31.58
2023-01-18T13:13:36.847Z,27.90
2023-01-18T13:16:10.763Z,31.48
2023-01-18T13:18:42.319Z,36.55
2023-01-18T13:21:13.909Z,34.97
2023-01-18T13:23:46.536Z,38.58
2023-01-18T13:26:21.122Z,37.53
2023-01-18T13:28:48.475Z,34.83
2023-01-18T13:31:16.322Z,33.63
2023-01-18T13:33:45.351Z,34.40
2023-01-18T13:36:13.894Z,26.20
2023-01-18T13:38:49.916Z,28.27
2023-01-18T13:41:22.527Z,30.60
2023-01-18T13:44:03.638Z,30.27
2023-01-18T13:46:32.766Z,25.23
2023-01-18T13:49:01.574Z,49.93
2023-01-18T13:51:53.744Z,91.90
2023-01-18T13:55:03.699Z,100.93
2023-01-18T13:57:32.449Z,126.03
2023-01-18T14:00:01.215Z,210.55
2023-01-18T14:02:31.898Z,241.98
2023-01-18T14:05:01.095Z,225.18
2023-01-18T14:07:28.510Z,216.13
2023-01-18T14:10:00.162Z,218.57
2023-01-18T14:12:47.538Z,204.45
2023-01-18T14:15:26.196Z,177.05
2023-01-18T14:17:58.872Z,166.43
2023-01-18T14:20:41.043Z,177.35
2023-01-18T14:23:16.713Z,183.10
2023-01-18T14:25:53.180Z,170.60
2023-01-18T14:28:24.066Z,154.55
2023-01-18T14:30:51.461Z,148.50
2023-01-18T14:33:22.523Z,142.05
2023-01-18T14:35:51.734Z,144.75
2023-01-18T14:38:19.281Z,137.33
2023-01-18T14:40:47.033Z,130.25
2023-01-18T14:43:16.516Z,121.85
2023-01-18T14:45:52.016Z,133.63
2023-01-18T14:48:20.158Z,116.40
2023-01-18T14:50:48.228Z,104.38
2023-01-18T14:53:16.579Z,104.50
2023-01-18T14:55:44.586Z,99.13
2023-01-18T14:58:13.985Z,89.28
2023-01-18T15:00:46.006Z,94.30
2023-01-18T15:03:15.501Z,89.20
2023-01-18T15:05:42.866Z,82.93
2023-01-18T15:08:10.467Z,81.82
2023-01-18T15:10:39.115Z,76.63
2023-01-18T15:13:06.499Z,68.07
2023-01-18T15:15:36.978Z,74.25
2023-01-18T15:18:05.438Z,65.03
2023-01-18T15:20:34.457Z,57.92
2023-01-18T15:23:02.137Z,61.15
2023-01-18T15:25:31.519Z,58.08
2023-01-18T15:27:59.707Z,51.83
2023-01-18T15:30:27.196Z,51.50
2023-01-18T15:32:55.278Z,51.20
2023-01-18T15:35:23.727Z,46.78
2023-01-18T15:37:52.418Z,46.70
2023-01-18T15:40:27.613Z,47.53
2023-01-18T15:42:58.937Z,41.13
2023-01-18T15:45:28.913Z,40.90
2023-01-18T15:47:57.419Z,39.08
2023-01-18T15:50:26.693Z,34.20
2023-01-18T15:53:02.045Z,37.47
2023-01-18T15:55:33.038Z,37.42
2023-01-18T15:58:02.307Z,31.30
2023-01-18T16:00:31.874Z,32.47
2023-01-18T16:02:59.331Z,31.23
2023-01-18T16:05:26.911Z,27.60
2023-01-18T16:08:16.484Z,33.20
2023-01-18T16:10:53.481Z,26.85
2023-01-18T16:13:37.951Z,25.92
2023-01-18T16:16:13.948Z,25.58
2023-01-18T16:18:43.548Z,23.23
2023-01-18T16:21:14.106Z,21.95
2023-01-18T16:23:45.572Z,20.35
2023-01-18T16:26:13.341Z,19.08
2023-01-18T16:28:40.908Z,19.45
2023-01-18T16:31:08.309Z,21.52
2023-01-18T16:33:35.721Z,19.45
2023-01-18T16:36:14.864Z,18.65
2023-01-18T16:38:42.233Z,19.02
2023-01-18T16:41:11.017Z,20.05
2023-01-18T16:43:38.639Z,19.20
2023-01-18T16:46:06.191Z,16.27
2023-01-18T16:48:34.868Z,17.80
2023-01-18T16:51:02.250Z,15.93
2023-01-18T16:53:29.678Z,18.35
2023-01-18T16:55:57.115Z,16.50
2023-01-18T16:58:26.211Z,15.93
2023-01-18T17:00:57.227Z,18.45
2023-01-18T17:03:24.894Z,16.08
2023-01-18T17:05:52.324Z,17.08
2023-01-18T17:08:19.708Z,16.92
2023-01-18T17:10:47.611Z,16.65
2023-01-18T17:13:14.990Z,16.85
2023-01-18T17:15:45.259Z,14.10
2023-01-18T17:18:14.521Z,14.48
2023-01-18T17:20:41.910Z,14.77
2023-01-18T17:23:09.427Z,13.35
2023-01-18T17:25:36.864Z,12.88
2023-01-18T17:28:04.325Z,14.27
2023-01-18T17:30:32.666Z,14.32
2023-01-18T17:33:01.728Z,12.77
2023-01-18T17:35:29.402Z,13.43
2023-01-18T17:38:04.669Z,14.80
2023-01-18T17:40:43.467Z,15.10
2023-01-18T17:43:13.626Z,14.70
2023-01-18T17:45:43.974Z,12.93
2023-01-18T17:48:14.620Z,13.38
2023-01-18T17:50:42.118Z,15.07
2023-01-18T17:53:09.730Z,13.20
2023-01-18T17:55:37.150Z,13.57
2023-01-18T17:58:04.665Z,10.70
2023-01-18T18:00:32.030Z,13.02
2023-01-18T18:03:01.223Z,12.85
2023-01-18T18:05:30.744Z,11.30
2023-01-18T18:07:58.107Z,11.18
2023-01-18T18:10:25.536Z,10.80
2023-01-18T18:12:53.112Z,11.30
2023-01-18T18:15:22.143Z,11.23
2023-01-18T18:17:49.513Z,11.60
2023-01-18T18:20:17.599Z,9.63
2023-01-18T18:22:46.389Z,11.82
2023-01-18T18:25:13.763Z,11.48
2023-01-18T18:27:45.758Z,12.45
2023-01-18T18:30:14.003Z,11.07
2023-01-18T18:32:41.419Z,12.32
2023-01-18T18:35:23.884Z,11.07
2023-01-18T18:37:54.491Z,11.20
2023-01-18T18:40:22.146Z,10.35
2023-01-18T18:43:01.337Z,10.38
2023-01-18T18:45:30.907Z,10.25
2023-01-18T18:47:58.297Z,10.35
2023-01-18T18:50:25.684Z,9.07
2023-01-18T18:52:54.430Z,8.27
2023-01-18T18:55:21.814Z,10.45
2023-01-18T18:57:49.184Z,10.00
2023-01-18T19:00:17.315Z,8.90
2023-01-18T19:02:44.733Z,9.63
2023-01-18T19:05:12.142Z,8.90
2023-01-18T19:07:39.935Z,8.73
2023-01-18T19:10:11.341Z,7.53
2023-01-18T19:12:38.723Z,7.45
2023-01-18T19:15:06.854Z,10.00
2023-01-18T19:17:34.222Z,7.30
2023-01-18T19:20:01.639Z,10.10
2023-01-18T19:22:29.288Z,8.60
2023-01-18T19:24:56.681Z,6.70
2023-01-18T19:27:25.433Z,8.13
2023-01-18T19:29:55.400Z,9.48
2023-01-18T19:32:22.864Z,7.28
2023-01-18T19:34:50.245Z,6.32
2023-01-18T19:37:17.607Z,7.43
2023-01-18T19:39:45.096Z,7.85
2023-01-18T19:42:12.476Z,8.18
2023-01-18T19:44:41.172Z,6.75
2023-01-18T19:47:08.536Z,8.32
2023-01-18T19:49:35.948Z,7.75
2023-01-18T19:52:03.340Z,9.98
2023-01-18T19:54:30.729Z,7.15
2023-01-18T19:56:58.094Z,6.35
2023-01-18T19:59:25.589Z,6.13
2023-01-18T20:01:54.665Z,5.80
2023-01-18T20:04:22.191Z,7.23
2023-01-18T20:06:50.067Z,7.28
2023-01-18T20:09:19.820Z,7.13
2023-01-18T20:11:48.503Z,7.15
2023-01-18T20:14:15.887Z,6.00
2023-01-18T20:16:45.688Z,7.03
2023-01-18T20:21:42.099Z,6.88
2023-01-18T20:24:09.820Z,7.68
2023-01-18T20:26:40.056Z,7.03
2023-01-18T20:29:08.358Z,7.68
2023-01-18T20:31:36.123Z,6.35
2023-01-18T20:34:03.855Z,8.55
2023-01-18T20:36:34.594Z,8.07
2023-01-18T20:39:02.143Z,8.10
2023-01-18T20:41:29.543Z,8.45
2023-01-18T20:43:56.937Z,8.57
2023-01-18T20:46:24.418Z,8.07
2023-01-18T20:48:51.923Z,8.48
2023-01-18T20:51:19.308Z,10.00
2023-01-18T20:53:48.213Z,8.68
2023-01-18T20:56:28.469Z,9.55
2023-01-18T20:58:56.464Z,9.07
2023-01-18T21:01:23.907Z,8.45
2023-01-18T21:03:53.637Z,8.20
2023-01-18T21:06:21.049Z,9.32
2023-01-18T21:08:52.170Z,9.35
2023-01-18T21:11:22.736Z,7.50
2023-01-18T21:13:50.153Z,9.23
2023-01-18T21:16:17.677Z,8.60
2023-01-18T21:18:45.228Z,9.23
2023-01-18T21:21:13.282Z,7.68
2023-01-18T21:23:41.583Z,9.27
2023-01-18T21:26:11.727Z,8.75
2023-01-18T21:31:06.638Z,7.72
2023-01-18T21:33:34.671Z,8.32
2023-01-18T21:36:05.962Z,6.57
2023-01-18T21:38:34.165Z,7.70
2023-01-18T21:41:22.001Z,7.88
2023-01-18T21:44:11.331Z,8.25
2023-01-18T21:46:38.984Z,6.75
2023-01-18T21:49:07.166Z,7.07
2023-01-18T21:51:52.453Z,6.47
2023-01-18T21:54:22.080Z,7.25
2023-01-18T21:56:50.951Z,7.03
2023-01-18T21:59:19.683Z,7.45
2023-01-18T22:01:47.917Z,7.57
2023-01-18T22:04:33.818Z,5.22
2023-01-18T22:07:01.290Z,6.35
2023-01-18T22:09:29.427Z,5.95
2023-01-18T22:11:57.249Z,5.47
2023-01-18T22:14:26.185Z,4.72
2023-01-18T22:16:53.670Z,6.10
2023-01-18T22:19:21.087Z,6.13
2023-01-18T22:21:49.138Z,5.70
2023-01-18T22:24:16.992Z,5.22
2023-01-18T22:26:44.672Z,5.90
2023-01-18T22:29:12.194Z,5.15
2023-01-18T22:31:40.951Z,8.75
2023-01-18T22:34:08.526Z,5.45
2023-01-18T22:36:35.968Z,5.30
2023-01-18T22:39:03.396Z,4.93
2023-01-18T22:41:30.936Z,4.70
2023-01-18T22:43:58.451Z,5.28
2023-01-18T22:46:26.050Z,6.03
2023-01-18T22:48:54.791Z,5.57
2023-01-18T22:51:22.820Z,5.03
2023-01-18T22:53:50.330Z,5.60
2023-01-18T22:56:19.451Z,5.72
2023-01-18T22:58:46.943Z,5.90
2023-01-18T23:01:15.861Z,5.78
2023-01-18T23:03:43.539Z,4.97
2023-01-18T23:06:12.449Z,4.43
2023-01-18T23:08:42.285Z,5.47
2023-01-18T23:11:10.707Z,4.38
2023-01-18T23:13:38.164Z,4.90
2023-01-18T23:16:27.634Z,4.80
2023-01-18T23:18:55.033Z,5.57
2023-01-18T23:21:23.776Z,5.07
2023-01-18T23:23:51.217Z,4.57
2023-01-18T23:26:18.635Z,4.97
2023-01-18T23:28:46.132Z,4.88
2023-01-18T23:31:14.710Z,5.03
2023-01-18T23:33:42.399Z,5.45
2023-01-18T23:36:10.392Z,4.43
2023-01-18T23:38:56.678Z,4.82
2023-01-18T23:41:42.144Z,4.93
2023-01-18T23:44:26.842Z,4.13
2023-01-18T23:47:11.727Z,4.30
2023-01-18T23:49:56.478Z,5.47
2023-01-18T23:52:41.793Z,4.07
2023-01-18T23:55:10.915Z,5.10
2023-01-18T23:57:38.317Z,4.53
